Latest Weather Observations for Adelaide (West Terrace / ngayirdapira)

IDS60801

Issued at 3:21 am CST Monday 6 July 2020 (issued every 10 minutes, with the page automatically refreshed every 10 minutes)

About weather observations | Map of weather stations | Latest weather observations for SA | Other Formats
Station Details ID: 023000 Name: ADELAIDE (WEST TERRACE / NGAYIRDAPIRA) Lat: -34.93 Lon: 138.58 Height: 29.32 m
Data from the previous 72 hours. | See also: Recent months at Adelaide (West Terrace / ngayirdapira)
Date/Time
CST
Temp
°C
App
Temp
°C
Dew
Point
°C
Rel
Hum
%
Delta-T
°C
Wind Press
QNH
hPa
Press
MSL
hPa
Rain since
9am
mm
Dir  Spd
km/h
Gust
km/h
Spd
kts
Gust
kts
06/03:00am 9.4 8.5 5.9 79 1.6 CALM 0 0 0 0 1032.1 1032.2 0.0
06/02:30am 9.4 8.5 5.9 79 1.6 CALM 0 0 0 0 1032.1 1032.2 0.0
06/02:00am 9.3 8.3 5.7 78 1.6 CALM 0 0 0 0 1032.1 1032.2 0.0
06/01:30am 10.2 7.7 5.0 70 2.3 SE 7 11 4 6 1032.2 1032.3 0.0
06/01:00am 10.5 8.1 5.3 70 2.4 ESE 7 11 4 6 1032.2 1032.3 0.0
06/12:30am 10.6 7.8 5.2 69 2.4 ESE 9 13 5 7 1032.4 1032.5 0.0
06/12:00am 10.7 7.9 5.3 69 2.4 ESE 9 17 5 9 1032.3 1032.4 0.0
 
Date/Time
CST
Temp
°C
App
Temp
°C
Dew
Point
°C
Rel
Hum
%
Delta-T
°C
Wind Press
QNH
hPa
Press
MSL
hPa
Rain since
9am
mm
Dir  Spd
km/h
Gust
km/h
Spd
kts
Gust
kts
05/11:30pm 10.1 8.8 5.9 75 1.9 SE 2 7 1 4 1032.3 1032.4 0.0
05/11:00pm 10.3 8.6 5.7 73 2.1 SE 4 9 2 5 1032.3 1032.4 0.0
05/10:30pm 10.2 9.2 5.6 73 2.1 CALM 0 6 0 3 1032.1 1032.2 0.0
05/10:00pm 10.4 8.7 5.8 73 2.1 SSE 4 11 2 6 1031.9 1032.0 0.0
05/09:30pm 10.5 8.3 6.1 74 2.0 SSE 7 13 4 7 1031.9 1032.0 0.0
05/09:00pm 9.1 7.1 6.4 83 1.2 SSE 6 9 3 5 1031.8 1031.9 0.0
05/08:30pm 8.7 6.6 6.0 83 1.2 SSE 6 7 3 4 1031.5 1031.6 0.0
05/08:00pm 8.4 7.1 5.9 84 1.1 S 2 7 1 4 1031.4 1031.5 0.0
05/07:30pm 9.1 7.0 5.8 80 1.5 SSE 6 7 3 4 1031.3 1031.4 0.0
05/07:00pm 10.2 8.1 6.0 75 1.9 SE 6 7 3 4 1031.2 1031.3 0.0
05/06:30pm 10.8 8.2 6.0 72 2.2 SE 9 15 5 8 1031.0 1031.1 0.0
05/06:00pm 11.2 8.6 6.3 72 2.3 SE 9 13 5 7 1030.6 1030.7 0.0
05/05:30pm 12.1 9.7 7.0 71 2.4 SSE 9 15 5 8 1030.0 1030.1 0.0
05/05:00pm 13.1 10.9 7.8 70 2.6 SSW 9 19 5 10 1029.6 1029.7 0.0
05/04:39pm 13.7 12.2 10.7 82 1.6 WSW 9 13 5 7 1029.8 1029.9 0.0
05/04:30pm 13.7 12.2 10.5 81 1.7 WSW 9 17 5 9 1029.7 1029.8 0.0
05/04:10pm 13.7 11.4 10.5 81 1.7 WSW 13 20 7 11 1029.5 1029.6 0.0
05/04:00pm 13.9 11.2 10.5 80 1.8 SW 15 20 8 11 1029.5 1029.6 0.0
05/03:30pm 14.3 11.5 9.9 75 2.3 SW 15 24 8 13 1029.5 1029.6 0.0
05/03:00pm 14.6 11.8 10.0 74 2.4 WSW 15 20 8 11 1029.6 1029.7 0.0
05/02:30pm 14.6 11.4 10.0 74 2.4 SW 17 24 9 13 1029.7 1029.8 0.0
05/02:00pm 14.6 11.4 10.0 74 2.4 WSW 17 24 9 13 1029.7 1029.8 0.0
05/01:30pm 14.6 11.3 9.6 72 2.6 WSW 17 26 9 14 1030.0 1030.1 0.0
05/01:00pm 14.4 11.2 8.6 68 2.9 WSW 15 22 8 12 1030.2 1030.3 0.0
05/12:30pm 14.0 11.2 8.4 69 2.8 WSW 13 20 7 11 1030.7 1030.8 0.0
05/12:00pm 14.6 12.7 10.4 76 2.2 WSW 11 17 6 9 1031.1 1031.2 0.0
05/11:30am 13.4 11.5 8.9 74 2.3 S 9 15 5 8 1031.5 1031.6 0.0
05/11:00am 12.9 11.7 10.3 84 1.3 SSW 7 11 4 6 1032.1 1032.2 0.0
05/10:33am 11.8 9.7 9.9 88 1.0 S 11 20 6 11 1032.2 1032.3 0.0
05/10:30am 11.8 9.8 10.0 89 0.9 S 11 20 6 11 1032.2 1032.3 0.0
05/10:09am 11.9 9.6 10.3 90 0.8 SW 13 20 7 11 1032.2 1032.3 0.0
05/10:08am 11.8 9.4 10.2 90 0.8 SW 13 20 7 11 1032.2 1032.3 0.0
05/10:00am 12.1 10.6 10.5 90 0.8 SW 9 19 5 10 1032.2 1032.3 0.0
05/09:52am 12.1 11.2 10.5 90 0.8 SW 6 13 3 7 1032.2 1032.3 0.0
05/09:49am 12.0 11.0 10.4 90 0.8 SSW 6 13 3 7 1032.1 1032.2 0.0
05/09:30am 11.7 11.8 10.1 90 0.8 CALM 0 6 0 3 1032.0 1032.1 0.0
05/09:17am 11.6 10.5 10.0 90 0.8 SSE 6 9 3 5 1031.9 1032.0 0.0
05/09:00am 11.5 9.7 9.6 88 1.0 S 9 15 5 8 1031.8 1031.9 0.0
05/08:30am 11.7 11.6 9.6 87 1.1 CALM 0 6 0 3 1031.4 1031.5 0.0
05/08:00am 11.1 10.9 9.2 88 0.9 CALM 0 0 0 0 1031.2 1031.3 0.0
05/07:32am 11.1 9.8 9.2 88 0.9 SSE 6 7 3 4 1031.1 1031.2 0.0
05/07:30am 11.2 9.9 9.3 88 0.9 SSE 6 7 3 4 1031.0 1031.1 0.0
05/07:00am 11.4 10.1 9.1 86 1.1 S 6 9 3 5 1030.9 1031.0 0.0
05/06:30am 11.3 10.2 8.5 83 1.4 SW 4 9 2 5 1030.6 1030.7 0.0
05/06:00am 11.1 10.8 8.8 86 1.1 CALM 0 4 0 2 1030.4 1030.5 0.0
05/05:30am 10.9 10.6 8.8 87 1.0 CALM 0 0 0 0 1030.3 1030.4 0.0
05/05:00am 10.9 10.6 8.8 87 1.0 CALM 0 0 0 0 1030.3 1030.4 0.0
05/04:30am 10.9 10.6 8.8 87 1.0 CALM 0 0 0 0 1030.3 1030.4 0.0
05/04:00am 11.1 10.5 9.0 87 1.0 NW 2 9 1 5 1030.5 1030.6 0.0
05/03:30am 11.0 10.7 8.6 85 1.2 CALM 0 0 0 0 1030.6 1030.7 0.0
05/03:00am 11.2 10.9 8.6 84 1.3 CALM 0 0 0 0 1030.7 1030.8 0.0
05/02:30am 11.1 10.3 8.1 82 1.5 SSE 2 6 1 3 1030.8 1030.9 0.0
05/02:00am 10.8 10.5 8.6 86 1.1 CALM 0 6 0 3 1030.9 1031.0 0.0
05/01:30am 10.8 10.1 8.6 86 1.1 SSE 2 9 1 5 1030.9 1031.0 0.0
05/01:00am 10.6 10.3 8.7 88 0.9 CALM 0 0 0 0 1030.8 1030.9 0.0
05/12:30am 10.6 10.4 9.2 91 0.7 CALM 0 0 0 0 1030.9 1031.0 0.0
05/12:00am 10.5 10.4 9.4 93 0.5 CALM 0 0 0 0 1031.0 1031.1 0.0
 
Date/Time
CST
Temp
°C
App
Temp
°C
Dew
Point
°C
Rel
Hum
%
Delta-T
°C
Wind Press
QNH
hPa
Press
MSL
hPa
Rain since
9am
mm
Dir  Spd
km/h
Gust
km/h
Spd
kts
Gust
kts
04/11:30pm 10.5 10.4 9.4 93 0.5 CALM 0 0 0 0 1031.1 1031.2 0.0
04/11:00pm 10.5 9.7 9.6 94 0.5 SSE 4 7 2 4 1031.2 1031.3 0.0
04/10:30pm 10.2 9.7 9.3 94 0.4 S 2 6 1 3 1031.3 1031.4 0.0
04/10:00pm 10.0 9.8 9.1 94 0.4 CALM 0 0 0 0 1031.3 1031.4 0.0
04/09:30pm 9.4 9.1 8.5 94 0.4 CALM 0 0 0 0 1031.2 1031.3 0.0
04/09:00pm 9.1 7.5 8.0 93 0.5 S 6 9 3 5 1031.1 1031.2 0.0
04/08:30pm 9.8 9.5 8.6 92 0.6 CALM 0 6 0 3 1031.2 1031.3 0.0
04/08:00pm 10.6 9.5 9.8 95 0.4 SSE 6 7 3 4 1031.0 1031.1 0.0
04/07:30pm 10.6 10.6 9.8 95 0.4 CALM 0 0 0 0 1030.8 1030.9 0.0
04/07:00pm 10.7 9.9 9.8 94 0.5 WSW 4 6 2 3 1030.6 1030.7 0.0
04/06:30pm 11.5 11.7 10.4 93 0.6 CALM 0 0 0 0 1030.5 1030.6 0.0
04/06:00pm 11.9 12.0 10.1 89 0.9 CALM 0 0 0 0 1030.5 1030.6 0.0
04/05:47pm 12.1 11.8 10.2 88 1.0 W 2 9 1 5 1030.4 1030.5 0.0
04/05:30pm 12.5 11.9 10.4 87 1.1 WSW 4 9 2 5 1030.4 1030.5 0.0
04/05:00pm 13.4 12.0 10.8 84 1.4 WSW 9 17 5 9 1030.2 1030.3 0.0
04/04:43pm 13.7 11.9 10.7 82 1.6 WSW 11 20 6 11 1030.1 1030.2 0.0
04/04:30pm 13.9 12.1 10.7 81 1.7 WSW 11 19 6 10 1030.0 1030.1 0.0
04/04:00pm 14.0 11.7 10.4 79 1.9 WSW 13 17 7 9 1029.9 1030.0 0.0
04/03:30pm 14.4 11.7 10.4 77 2.1 WSW 15 22 8 12 1030.0 1030.1 0.0
04/03:00pm 14.5 11.9 10.7 78 2.0 WSW 15 24 8 13 1030.0 1030.1 0.0
04/02:30pm 14.6 12.4 10.8 78 2.0 WSW 13 20 7 11 1030.0 1030.1 0.0
04/02:00pm 14.7 12.2 11.1 79 1.9 WSW 15 20 8 11 1030.2 1030.3 0.0
04/01:30pm 14.6 12.1 11.0 79 1.9 WSW 15 24 8 13 1030.4 1030.5 0.0
04/01:00pm 14.1 11.5 10.7 80 1.8 WSW 15 26 8 14 1030.6 1030.7 0.0
04/12:30pm 13.9 10.7 10.1 78 2.0 WSW 17 30 9 16 1030.9 1031.0 0.0
04/12:00pm 13.9 11.6 10.5 80 1.8 WSW 13 24 7 13 1031.2 1031.3 0.0
04/11:30am 13.6 11.2 10.0 79 1.8 SW 13 22 7 12 1031.5 1031.6 0.0
04/11:00am 13.5 11.2 10.5 82 1.6 SW 13 20 7 11 1031.7 1031.8 0.0
04/10:30am 13.0 10.5 9.6 80 1.7 WSW 13 20 7 11 1031.8 1031.9 0.0
04/10:00am 12.6 10.0 9.4 81 1.6 SW 13 20 7 11 1031.6 1031.7 0.0
04/09:30am 11.9 10.5 9.6 86 1.2 SW 7 15 4 8 1031.4 1031.5 0.0
04/09:00am 11.7 11.1 10.3 91 0.7 SW 4 9 2 5 1031.1 1031.2 1.6
04/08:30am 10.9 11.0 10.0 94 0.5 CALM 0 6 0 3 1031.1 1031.2 1.6
04/08:00am 10.0 9.4 8.9 93 0.5 S 2 6 1 3 1030.9 1031.0 1.6
04/07:30am 9.9 8.5 9.0 94 0.4 S 6 9 3 5 1030.8 1030.9 1.4
04/07:00am 9.7 9.5 8.9 95 0.4 CALM 0 0 0 0 1030.7 1030.8 1.4
04/06:30am 9.7 9.1 8.9 95 0.4 SE 2 7 1 4 1030.6 1030.7 1.4
04/06:15am 9.6 9.0 8.8 95 0.4 SE 2 6 1 3 1030.6 1030.7 1.4
04/06:00am 9.5 9.2 8.7 95 0.4 CALM 0 4 0 2 1030.6 1030.7 1.4
04/05:30am 9.2 8.8 8.4 95 0.4 CALM 0 0 0 0 1030.3 1030.4 1.4
04/05:21am 9.2 8.8 8.4 95 0.4 CALM 0 6 0 3 1030.3 1030.4 1.4
04/05:03am 9.3 7.8 8.5 95 0.4 SSE 6 9 3 5 1030.3 1030.4 1.4
04/05:00am 9.2 8.1 8.4 95 0.4 SE 4 9 2 5 1030.3 1030.4 1.2
04/04:49am 9.2 7.7 8.4 95 0.4 SE 6 7 3 4 1030.3 1030.4 1.2
04/04:30am 9.0 8.6 8.2 95 0.4 CALM 0 6 0 3 1030.4 1030.5 1.2
04/04:26am 9.0 8.6 8.2 95 0.4 CALM 0 6 0 3 1030.4 1030.5 1.2
04/04:00am 8.9 8.5 8.1 95 0.4 CALM 0 0 0 0 1030.5 1030.6 1.2
04/03:30am 8.9 8.5 8.1 95 0.4 CALM 0 6 0 3 1030.3 1030.4 1.2
04/03:00am 8.2 7.6 7.3 94 0.4 CALM 0 0 0 0 1030.4 1030.5 1.2
04/02:30am 7.9 7.2 7.0 94 0.4 CALM 0 0 0 0 1030.3 1030.4 1.2
04/02:00am 8.4 7.8 7.5 94 0.4 CALM 0 2 0 1 1030.3 1030.4 1.2
04/01:30am 8.9 8.4 8.0 94 0.4 CALM 0 0 0 0 1030.2 1030.3 1.2
04/01:12am 9.1 7.4 8.2 94 0.4 S 7 13 4 7 1030.3 1030.4 1.2
04/01:00am 9.2 7.5 8.3 94 0.4 SSW 7 17 4 9 1030.3 1030.4 1.2
04/12:54am 8.8 7.9 7.7 93 0.5 SSE 2 13 1 7 1030.3 1030.4 1.0
04/12:36am 8.9 7.2 7.7 92 0.6 SSW 6 9 3 5 1030.2 1030.3 1.0
04/12:30am 9.2 7.4 8.0 92 0.6 SSW 7 11 4 6 1030.2 1030.3 1.0
04/12:18am 9.3 7.5 7.9 91 0.7 SW 7 13 4 7 1030.4 1030.5 0.8
04/12:00am 9.2 6.9 7.6 90 0.8 S 9 15 5 8 1030.4 1030.5 0.8
 
Date/Time
CST
Temp
°C
App
Temp
°C
Dew
Point
°C
Rel
Hum
%
Delta-T
°C
Wind Press
QNH
hPa
Press
MSL
hPa
Rain since
9am
mm
Dir  Spd
km/h
Gust
km/h
Spd
kts
Gust
kts
03/11:30pm 9.0 7.0 7.3 89 0.8 S 7 11 4 6 1030.4 1030.5 0.8
03/11:25pm 9.0 6.6 7.1 88 0.9 S 9 13 5 7 1030.4 1030.5 0.8
03/11:00pm 9.6 7.1 8.0 90 0.8 SSW 11 17 6 9 1030.4 1030.5 0.8
03/10:55pm 9.6 7.0 7.9 89 0.8 SSW 11 17 6 9 1030.4 1030.5 0.8
03/10:40pm 9.6 7.3 7.5 87 1.0 SSW 9 17 5 9 1030.2 1030.3 0.6
03/10:30pm 9.8 7.2 7.7 87 1.0 S 11 20 6 11 1030.2 1030.3 0.4
03/10:24pm 10.0 8.1 7.6 85 1.1 S 7 20 4 11 1030.3 1030.4 0.4
03/10:00pm 10.1 7.6 6.6 79 1.6 SSW 9 17 5 9 1030.1 1030.2 0.4
03/09:30pm 10.4 8.2 6.4 76 1.9 S 7 11 4 6 1029.9 1030.0 0.4
03/09:00pm 10.6 7.8 6.9 78 1.7 SW 11 17 6 9 1029.8 1029.9 0.4
03/08:30pm 10.7 7.4 6.5 75 2.0 SW 13 22 7 12 1029.6 1029.7 0.4
03/08:00pm 11.2 8.3 6.5 73 2.2 SSW 11 19 6 10 1029.3 1029.4 0.4
03/07:30pm 11.4 7.8 4.8 64 3.0 SSW 13 20 7 11 1029.0 1029.1 0.4
03/07:00pm 11.2 8.2 4.2 62 3.1 SSW 9 20 5 11 1028.7 1028.8 0.4
03/06:30pm 11.7 8.8 4.7 62 3.2 S 9 17 5 9 1028.4 1028.5 0.4
03/06:00pm 11.9 7.8 4.4 60 3.4 SSW 15 28 8 15 1028.1 1028.2 0.4
03/05:30pm 12.0 8.1 3.5 56 3.7 SW 13 26 7 14 1027.7 1027.8 0.4
03/05:00pm 12.2 7.6 3.9 57 3.7 SW 17 28 9 15 1027.2 1027.3 0.4
03/04:30pm 12.3 7.3 4.5 59 3.5 SW 20 33 11 18 1026.7 1026.8 0.4
03/04:00pm 12.6 7.7 4.1 56 3.8 SSW 19 30 10 16 1026.4 1026.4 0.4
03/03:30pm 13.0 8.6 4.9 58 3.7 SW 17 33 9 18 1026.0 1026.0 0.4
03/03:00pm 13.1 8.2 5.3 59 3.6 SW 20 32 11 17 1025.8 1025.8 0.4
03/02:30pm 13.3 8.6 6.2 62 3.4 SW 20 35 11 19 1025.6 1025.6 0.4
03/02:00pm 13.0 8.1 6.8 66 3.0 SW 22 37 12 20 1025.2 1025.2 0.4
03/01:30pm 12.9 8.8 7.8 71 2.5 SW 19 35 10 19 1025.0 1025.0 0.4
03/01:17pm 12.7 6.9 8.0 73 2.3 SSW 28 46 15 25 1025.0 1025.0 0.4
03/01:06pm 13.2 8.9 9.3 77 2.0 SW 22 39 12 21 1025.1 1025.1 0.4
03/01:00pm 12.6 8.2 8.9 78 1.9 SW 22 39 12 21 1025.1 1025.1 0.4
03/12:30pm 12.3 7.8 10.2 87 1.1 SW 24 50 13 27 1025.0 1025.0 0.4
03/12:28pm 12.4 7.9 10.1 86 1.2 SW 24 50 13 27 1024.9 1024.9 0.4
03/12:00pm 13.4 8.8 9.6 78 1.9 SW 24 37 13 20 1024.7 1024.7 0.4
03/11:30am 13.4 9.1 9.5 77 2.0 SW 22 39 12 21 1024.8 1024.8 0.4
03/11:00am 13.4 10.2 9.8 79 1.9 SW 17 35 9 19 1024.6 1024.6 0.4
03/10:30am 12.3 8.5 9.9 85 1.2 WSW 20 32 11 17 1024.4 1024.4 0.4
03/10:29am 12.4 8.9 10.1 86 1.2 WSW 19 28 10 15 1024.4 1024.4 0.4
03/10:25am 12.5 9.5 10.7 89 0.9 WSW 17 28 9 15 1024.4 1024.4 0.4
03/10:00am 12.2 9.0 11.1 93 0.6 W 19 28 10 15 1024.1 1024.1 0.2
03/09:59am 12.3 9.0 11.0 92 0.7 W 19 28 10 15 1024.1 1024.1 0.2
03/09:35am 12.2 9.3 10.9 92 0.7 W 17 24 9 13 1023.7 1023.7 0.2
03/09:34am 12.3 9.8 11.0 92 0.7 W 15 24 8 13 1023.6 1023.6 0.2
03/09:30am 12.2 9.7 10.9 92 0.7 W 15 24 8 13 1023.6 1023.6 0.2
03/09:20am 12.2 9.7 10.9 92 0.7 W 15 26 8 14 1023.5 1023.5 0.2
03/09:00am 12.2 10.5 11.3 94 0.5 WNW 11 17 6 9 1023.2 1023.2 3.0
03/08:53am 12.1 10.4 11.2 94 0.5 WNW 11 19 6 10 1023.2 1023.2 3.0
03/08:40am 12.1 10.0 11.0 93 0.6 WNW 13 26 7 14 1023.0 1023.0 3.0
03/08:30am 12.1 9.1 10.8 92 0.7 WNW 17 28 9 15 1022.9 1022.9 3.0
03/08:00am 11.3 9.4 10.5 95 0.4 NNW 11 22 6 12 1022.9 1022.9 2.8
03/07:30am 9.8 7.7 8.4 91 0.7 N 9 11 5 6 1022.7 1022.7 2.6
03/07:09am 11.6 8.9 10.3 92 0.7 NW 15 24 8 13 1022.4 1022.4 2.6
03/07:00am 11.6 8.5 10.3 92 0.7 NW 17 26 9 14 1022.4 1022.4 2.6
03/06:45am 11.5 9.1 10.2 92 0.7 NW 13 20 7 11 1022.2 1022.2 2.4
03/06:30am 11.5 8.7 10.1 91 0.7 NW 15 20 8 11 1022.0 1022.0 2.2
03/06:00am 9.6 8.0 8.7 94 0.4 N 7 11 4 6 1021.7 1021.7 2.2
03/05:30am 9.7 7.7 8.6 93 0.5 N 9 13 5 7 1021.5 1021.5 2.2
03/05:00am 9.4 7.3 8.2 92 0.6 N 9 13 5 7 1021.4 1021.4 2.2
03/04:30am 9.3 6.4 8.1 92 0.6 NNE 13 19 7 10 1021.4 1021.4 2.2
03/04:00am 9.6 7.1 8.2 91 0.7 NNE 11 17 6 9 1021.5 1021.5 2.2
03/03:30am 9.9 7.8 8.3 90 0.8 N 9 13 5 7 1021.6 1021.6 2.2

Other formats

Comma delimited format used in spreadsheet applications
http://www.bom.gov.au/fwo/IDS60801/IDS60801.94648.axf

JavaScript Object Notation format (JSON) in row-major order
http://www.bom.gov.au/fwo/IDS60801/IDS60801.94648.json

Data quality

Most of these data are generated automatically and are frequently updated. Quality checks on data are not normally performed. It is possible for incorrect values to appear. Refer to information at About Latest Weather Observations and please check the disclaimer before using these data.